sensor_id;sensor_type;location;lat;lon;timestamp;pressure;altitude;pressure_sealevel;temperature;humidity
11692;BME280;33659;42.672;23.354;2024-01-15T00:01:14;67164.31;;;1.68;59.80
11692;BME280;33659;42.672;23.354;2024-01-15T00:03:42;67162.69;;;1.66;60.11
11692;BME280;33659;42.672;23.354;2024-01-15T00:06:09;67159.50;;;1.63;60.27
11692;BME280;33659;42.672;23.354;2024-01-15T00:08:36;67149.69;;;1.51;61.02
11692;BME280;33659;42.672;23.354;2024-01-15T00:11:03;67163.66;;;1.65;60.94
11692;BME280;33659;42.672;23.354;2024-01-15T00:13:29;67124.97;;;1.28;60.59
11692;BME280;33659;42.672;23.354;2024-01-15T00:15:56;67142.81;;;1.47;60.96
11692;BME280;33659;42.672;23.354;2024-01-15T00:18:23;67143.25;;;1.45;61.21
11692;BME280;33659;42.672;23.354;2024-01-15T00:20:51;67131.41;;;1.34;61.61
11692;BME280;33659;42.672;23.354;2024-01-15T00:23:18;67082.16;;;0.90;61.80
11692;BME280;33659;42.672;23.354;2024-01-15T00:25:44;67112.22;;;1.18;61.87
11692;BME280;33659;42.672;23.354;2024-01-15T00:28:12;67135.72;;;1.38;61.83
11692;BME280;33659;42.672;23.354;2024-01-15T00:30:38;67138.94;;;1.41;61.41
11692;BME280;33659;42.672;23.354;2024-01-15T00:33:12;67068.06;;;0.74;60.81
11692;BME280;33659;42.672;23.354;2024-01-15T00:35:40;67156.66;;;1.58;60.30
11692;BME280;33659;42.672;23.354;2024-01-15T00:38:10;67164.19;;;1.65;59.16
11692;BME280;33659;42.672;23.354;2024-01-15T00:40:37;67154.00;;;1.55;59.98
11692;BME280;33659;42.672;23.354;2024-01-15T00:43:04;67165.41;;;1.69;60.03
11692;BME280;33659;42.672;23.354;2024-01-15T00:45:33;67116.38;;;1.20;60.61
11692;BME280;33659;42.672;23.354;2024-01-15T00:47:59;67167.16;;;1.63;60.57
11692;BME280;33659;42.672;23.354;2024-01-15T00:50:26;67157.75;;;1.59;60.44
11692;BME280;33659;42.672;23.354;2024-01-15T00:52:53;67098.13;;;1.02;60.61
11692;BME280;33659;42.672;23.354;2024-01-15T00:55:21;67129.28;;;1.32;61.31
11692;BME280;33659;42.672;23.354;2024-01-15T00:57:48;67140.03;;;1.42;61.17
11692;BME280;33659;42.672;23.354;2024-01-15T01:00:15;67134.13;;;1.37;61.39
11692;BME280;33659;42.672;23.354;2024-01-15T01:02:43;67082.72;;;0.90;61.19
11692;BME280;33659;42.672;23.354;2024-01-15T01:05:10;67130.75;;;1.31;61.14
11692;BME280;33659;42.672;23.354;2024-01-15T01:07:37;67140.03;;;1.42;61.04
11692;BME280;33659;42.672;23.354;2024-01-15T01:10:05;67086.31;;;0.91;60.94
11692;BME280;33659;42.672;23.354;2024-01-15T01:12:33;67141.09;;;1.43;62.13
11692;BME280;33659;42.672;23.354;2024-01-15T01:15:00;67149.16;;;1.51;61.57
11692;BME280;33659;42.672;23.354;2024-01-15T01:17:28;67149.81;;;1.54;62.00
11692;BME280;33659;42.672;23.354;2024-01-15T01:19:56;67148.06;;;1.50;61.27
11692;BME280;33659;42.672;23.354;2024-01-15T01:22:22;67159.34;;;1.60;60.73
11692;BME280;33659;42.672;23.354;2024-01-15T01:24:49;67161.91;;;1.60;59.76
11692;BME280;33659;42.672;23.354;2024-01-15T01:27:16;67129.28;;;1.32;60.07
11692;BME280;33659;42.672;23.354;2024-01-15T01:29:44;67075.03;;;0.80;61.80
11692;BME280;33659;42.672;23.354;2024-01-15T01:32:11;67042.31;;;0.49;63.54
11692;BME280;33659;42.672;23.354;2024-01-15T01:34:40;67005.81;;;0.15;63.77
11692;BME280;33659;42.672;23.354;2024-01-15T01:37:08;67022.59;;;0.33;63.58
11692;BME280;33659;42.672;23.354;2024-01-15T01:39:35;67036.41;;;0.44;63.40
11692;BME280;33659;42.672;23.354;2024-01-15T01:42:01;66996.84;;;0.09;63.29
11692;BME280;33659;42.672;23.354;2024-01-15T01:44:28;67050.34;;;0.57;62.90
11692;BME280;33659;42.672;23.354;2024-01-15T01:46:57;67058.41;;;0.65;62.72
11692;BME280;33659;42.672;23.354;2024-01-15T01:49:24;67059.50;;;0.66;62.10
11692;BME280;33659;42.672;23.354;2024-01-15T01:51:51;67046.59;;;0.53;62.42
11692;BME280;33659;42.672;23.354;2024-01-15T01:54:19;67031.72;;;0.42;62.86
11692;BME280;33659;42.672;23.354;2024-01-15T01:56:47;67022.59;;;0.33;63.41
11692;BME280;33659;42.672;23.354;2024-01-15T01:59:15;67011.19;;;0.20;63.87
11692;BME280;33659;42.672;23.354;2024-01-15T02:01:41;66996.16;;;0.06;64.79
11692;BME280;33659;42.672;23.354;2024-01-15T02:04:11;66946.81;;;-0.41;65.08
11692;BME280;33659;42.672;23.354;2024-01-15T02:06:37;66954.31;;;-0.34;64.80
11692;BME280;33659;42.672;23.354;2024-01-15T02:09:04;66960.34;;;-0.26;65.19
11692;BME280;33659;42.672;23.354;2024-01-15T02:11:31;66953.25;;;-0.35;65.37
11692;BME280;33659;42.672;23.354;2024-01-15T02:13:58;66946.41;;;-0.39;65.90
11692;BME280;33659;42.672;23.354;2024-01-15T02:16:24;66938.78;;;-0.49;66.19
11692;BME280;33659;42.672;23.354;2024-01-15T02:18:51;66931.41;;;-0.53;66.26
11692;BME280;33659;42.672;23.354;2024-01-15T02:21:19;66901.38;;;-0.82;66.43
11692;BME280;33659;42.672;23.354;2024-01-15T02:23:49;66872.84;;;-1.12;66.56
11692;BME280;33659;42.672;23.354;2024-01-15T02:26:16;66923.25;;;-0.64;66.47
11692;BME280;33659;42.672;23.354;2024-01-15T02:28:44;66920.28;;;-0.62;66.74
11692;BME280;33659;42.672;23.354;2024-01-15T02:31:11;66921.22;;;-0.63;66.78
11692;BME280;33659;42.672;23.354;2024-01-15T02:33:38;66903.53;;;-0.80;67.23
11692;BME280;33659;42.672;23.354;2024-01-15T02:36:05;66907.28;;;-0.76;67.24
11692;BME280;33659;42.672;23.354;2024-01-15T02:38:32;66911.97;;;-0.74;67.13
11692;BME280;33659;42.672;23.354;2024-01-15T02:41:00;66911.44;;;-0.75;67.14
11692;BME280;33659;42.672;23.354;2024-01-15T02:43:27;66896.44;;;-0.89;66.44
11692;BME280;33659;42.672;23.354;2024-01-15T02:45:53;66921.75;;;-0.63;65.95
11692;BME280;33659;42.672;23.354;2024-01-15T02:48:20;66932.88;;;-0.55;66.01
11692;BME280;33659;42.672;23.354;2024-01-15T02:50:46;66933.56;;;-0.51;65.46
11692;BME280;33659;42.672;23.354;2024-01-15T02:53:13;66944.16;;;-0.44;65.13
11692;BME280;33659;42.672;23.354;2024-01-15T02:55:40;66971.09;;;-0.16;65.03
11692;BME280;33659;42.672;23.354;2024-01-15T02:58:08;66930.34;;;-0.55;64.85
11692;BME280;33659;42.672;23.354;2024-01-15T03:00:35;66980.72;;;-0.07;64.67
11692;BME280;33659;42.672;23.354;2024-01-15T03:03:02;67021.78;;;0.28;64.33
11692;BME280;33659;42.672;23.354;2024-01-15T03:05:28;67024.31;;;0.37;64.02
11692;BME280;33659;42.672;23.354;2024-01-15T03:07:55;67029.03;;;0.39;63.96
11692;BME280;33659;42.672;23.354;2024-01-15T03:10:22;67042.97;;;0.52;63.57
11692;BME280;33659;42.672;23.354;2024-01-15T03:12:48;67012.38;;;0.23;63.20
11692;BME280;33659;42.672;23.354;2024-01-15T03:15:16;67022.59;;;0.33;62.59
11692;BME280;33659;42.672;23.354;2024-01-15T03:17:49;67071.97;;;0.80;62.36
11692;BME280;33659;42.672;23.354;2024-01-15T03:20:16;67041.78;;;0.49;62.34
11692;BME280;33659;42.672;23.354;2024-01-15T03:22:42;67075.59;;;0.81;62.03
11692;BME280;33659;42.672;23.354;2024-01-15T03:25:09;67076.66;;;0.82;61.91
11692;BME280;33659;42.672;23.354;2024-01-15T03:27:36;67070.22;;;0.76;61.55
11692;BME280;33659;42.672;23.354;2024-01-15T03:30:03;67082.03;;;0.87;61.87
11692;BME280;33659;42.672;23.354;2024-01-15T03:32:31;67083.63;;;0.89;61.75
11692;BME280;33659;42.672;23.354;2024-01-15T03:34:57;67079.34;;;0.85;61.59
11692;BME280;33659;42.672;23.354;2024-01-15T03:37:24;67076.66;;;0.82;61.60
11692;BME280;33659;42.672;23.354;2024-01-15T03:39:51;67073.44;;;0.79;61.27
11692;BME280;33659;42.672;23.354;2024-01-15T03:42:17;67083.09;;;0.88;61.31
11692;BME280;33659;42.672;23.354;2024-01-15T03:44:44;67071.84;;;0.77;61.34
11692;BME280;33659;42.672;23.354;2024-01-15T03:47:11;67054.66;;;0.61;61.46
11692;BME280;33659;42.672;23.354;2024-01-15T03:49:39;67055.19;;;0.62;61.21
11692;BME280;33659;42.672;23.354;2024-01-15T03:52:05;67069.13;;;0.75;61.17
11692;BME280;33659;42.672;23.354;2024-01-15T03:54:32;67069.13;;;0.75;61.51
11692;BME280;33659;42.672;23.354;2024-01-15T03:56:59;67058.41;;;0.65;61.18
11692;BME280;33659;42.672;23.354;2024-01-15T03:59:26;67067.38;;;0.71;61.33
11692;BME280;33659;42.672;23.354;2024-01-15T04:01:52;67059.34;;;0.63;61.52
11692;BME280;33659;42.672;23.354;2024-01-15T04:04:19;67068.06;;;0.74;61.62
11692;BME280;33659;42.672;23.354;2024-01-15T04:06:48;67059.50;;;0.66;61.20
11692;BME280;33659;42.672;23.354;2024-01-15T04:09:15;67074.50;;;0.80;61.37
11692;BME280;33659;42.672;23.354;2024-01-15T04:11:42;67074.91;;;0.78;61.37
11692;BME280;33659;42.672;23.354;2024-01-15T04:14:09;67068.72;;;0.77;61.57
11692;BME280;33659;42.672;23.354;2024-01-15T04:16:37;67066.06;;;0.74;61.80
11692;BME280;33659;42.672;23.354;2024-01-15T04:19:04;67017.22;;;0.28;61.76
11692;BME280;33659;42.672;23.354;2024-01-15T04:21:30;67077.72;;;0.83;61.83
11692;BME280;33659;42.672;23.354;2024-01-15T04:23:58;67077.72;;;0.83;61.99
11692;BME280;33659;42.672;23.354;2024-01-15T04:26:25;67078.41;;;0.86;62.19
11692;BME280;33659;42.672;23.354;2024-01-15T04:28:52;67076.66;;;0.82;62.02
11692;BME280;33659;42.672;23.354;2024-01-15T04:31:23;67043.38;;;0.50;62.03
11692;BME280;33659;42.672;23.354;2024-01-15T04:33:50;67084.16;;;0.89;61.86
11692;BME280;33659;42.672;23.354;2024-01-15T04:36:16;67079.88;;;0.85;62.17
11692;BME280;33659;42.672;23.354;2024-01-15T04:38:43;67076.66;;;0.82;61.51
11692;BME280;33659;42.672;23.354;2024-01-15T04:41:12;67076.66;;;0.82;62.24
11692;BME280;33659;42.672;23.354;2024-01-15T04:43:39;67070.22;;;0.76;62.00
11692;BME280;33659;42.672;23.354;2024-01-15T04:46:06;67055.59;;;0.60;62.42
11692;BME280;33659;42.672;23.354;2024-01-15T04:48:33;66968.94;;;-0.18;62.70
11692;BME280;33659;42.672;23.354;2024-01-15T04:51:00;66953.25;;;-0.35;63.72
11692;BME280;33659;42.672;23.354;2024-01-15T04:53:26;66977.41;;;-0.12;64.41
11692;BME280;33659;42.672;23.354;2024-01-15T04:55:53;66966.53;;;-0.25;65.00
11692;BME280;33659;42.672;23.354;2024-01-15T04:58:21;66913.03;;;-0.73;65.24
11692;BME280;33659;42.672;23.354;2024-01-15T05:00:50;66945.22;;;-0.43;66.08
11692;BME280;33659;42.672;23.354;2024-01-15T05:03:17;66914.25;;;-0.70;66.47
11692;BME280;33659;42.672;23.354;2024-01-15T05:05:43;66909.31;;;-0.77;67.70
11692;BME280;33659;42.672;23.354;2024-01-15T05:08:10;66894.81;;;-0.91;67.76
11692;BME280;33659;42.672;23.354;2024-01-15T05:10:37;66899.63;;;-0.86;67.47
11692;BME280;33659;42.672;23.354;2024-01-15T05:13:03;66910.38;;;-0.76;67.88
11692;BME280;33659;42.672;23.354;2024-01-15T05:15:31;66927.50;;;-0.60;67.96
11692;BME280;33659;42.672;23.354;2024-01-15T05:17:58;66948.56;;;-0.37;67.11
11692;BME280;33659;42.672;23.354;2024-01-15T05:20:25;66944.81;;;-0.41;66.75
11692;BME280;33659;42.672;23.354;2024-01-15T05:22:52;66933.00;;;-0.52;66.38
11692;BME280;33659;42.672;23.354;2024-01-15T05:25:18;66985.44;;;-0.05;65.96
11692;BME280;33659;42.672;23.354;2024-01-15T05:27:45;66961.44;;;-0.25;65.37
11692;BME280;33659;42.672;23.354;2024-01-15T05:30:12;67007.97;;;0.17;65.00
11692;BME280;33659;42.672;23.354;2024-01-15T05:32:40;67012.81;;;0.21;64.95
11692;BME280;33659;42.672;23.354;2024-01-15T05:35:07;67020.19;;;0.26;64.44
11692;BME280;33659;42.672;23.354;2024-01-15T05:37:34;67018.16;;;0.26;64.49
11692;BME280;33659;42.672;23.354;2024-01-15T05:40:00;67016.00;;;0.24;64.23
11692;BME280;33659;42.672;23.354;2024-01-15T05:42:29;67004.75;;;0.14;64.45
11692;BME280;33659;42.672;23.354;2024-01-15T05:44:57;67010.66;;;0.19;64.54
11692;BME280;33659;42.672;23.354;2024-01-15T05:47:25;66990.81;;;0.01;63.95
11692;BME280;33659;42.672;23.354;2024-01-15T05:49:54;67010.09;;;0.19;63.94
11692;BME280;33659;42.672;23.354;2024-01-15T05:52:22;66990.94;;;0.03;64.16
11692;BME280;33659;42.672;23.354;2024-01-15T05:54:49;67004.34;;;0.16;64.05
11692;BME280;33659;42.672;23.354;2024-01-15T05:57:16;67003.66;;;0.13;64.61
11692;BME280;33659;42.672;23.354;2024-01-15T05:59:44;66958.63;;;-0.30;64.51
11692;BME280;33659;42.672;23.354;2024-01-15T06:02:11;66950.19;;;-0.36;64.37
11692;BME280;33659;42.672;23.354;2024-01-15T06:04:38;66992.69;;;0.07;64.82
11692;BME280;33659;42.672;23.354;2024-01-15T06:07:06;66988.66;;;-0.02;65.16
11692;BME280;33659;42.672;23.354;2024-01-15T06:09:33;66990.28;;;0.00;65.07
11692;BME280;33659;42.672;23.354;2024-01-15T06:12:00;66989.19;;;-0.01;65.11
11692;BME280;33659;42.672;23.354;2024-01-15T06:14:26;67013.34;;;0.22;64.67
11692;BME280;33659;42.672;23.354;2024-01-15T06:16:53;67017.63;;;0.26;64.65
11692;BME280;33659;42.672;23.354;2024-01-15T06:19:19;67028.34;;;0.36;64.66
11692;BME280;33659;42.672;23.354;2024-01-15T06:21:46;67035.47;;;0.45;64.63
11692;BME280;33659;42.672;23.354;2024-01-15T06:24:14;67037.34;;;0.42;63.74
11692;BME280;33659;42.672;23.354;2024-01-15T06:26:43;67031.59;;;0.39;63.74
11692;BME280;33659;42.672;23.354;2024-01-15T06:29:10;67056.94;;;0.66;63.73
11692;BME280;33659;42.672;23.354;2024-01-15T06:31:36;67007.03;;;0.18;63.13
11692;BME280;33659;42.672;23.354;2024-01-15T06:34:03;67063.78;;;0.70;63.53
11692;BME280;33659;42.672;23.354;2024-01-15T06:36:30;67071.44;;;0.79;63.60
11692;BME280;33659;42.672;23.354;2024-01-15T06:38:57;67078.25;;;0.84;63.66
11692;BME280;33659;42.672;23.354;2024-01-15T06:41:25;67068.72;;;0.77;63.42
11692;BME280;33659;42.672;23.354;2024-01-15T06:43:52;67033.31;;;0.43;63.54
11692;BME280;33659;42.672;23.354;2024-01-15T06:46:20;67072.38;;;0.78;63.57
11692;BME280;33659;42.672;23.354;2024-01-15T06:48:47;67059.50;;;0.66;63.08
11692;BME280;33659;42.672;23.354;2024-01-15T06:51:15;67072.38;;;0.78;63.05
11692;BME280;33659;42.672;23.354;2024-01-15T06:53:42;67110.47;;;1.14;62.55
11692;BME280;33659;42.672;23.354;2024-01-15T06:56:09;67122.28;;;1.25;62.47
11692;BME280;33659;42.672;23.354;2024-01-15T06:58:37;67120.28;;;1.26;62.41
11692;BME280;33659;42.672;23.354;2024-01-15T07:01:04;67077.34;;;0.85;62.74
11692;BME280;33659;42.672;23.354;2024-01-15T07:03:31;67012.38;;;0.23;64.14
11692;BME280;33659;42.672;23.354;2024-01-15T07:05:58;67061.63;;;0.68;64.00
11692;BME280;33659;42.672;23.354;2024-01-15T07:08:25;67061.63;;;0.68;63.84
11692;BME280;33659;42.672;23.354;2024-01-15T07:10:51;67059.50;;;0.66;64.21
11692;BME280;33659;42.672;23.354;2024-01-15T07:13:18;67079.75;;;0.82;64.11
11692;BME280;33659;42.672;23.354;2024-01-15T07:15:46;67041.22;;;0.48;64.16
11692;BME280;33659;42.672;23.354;2024-01-15T07:18:13;67091.69;;;0.96;64.32
11692;BME280;33659;42.672;23.354;2024-01-15T07:20:40;67066.06;;;0.74;64.08
11692;BME280;33659;42.672;23.354;2024-01-15T07:23:06;66988.13;;;-0.02;64.26
11692;BME280;33659;42.672;23.354;2024-01-15T07:25:34;67070.63;;;0.74;64.89
11692;BME280;33659;42.672;23.354;2024-01-15T07:28:02;67043.38;;;0.50;64.65
11692;BME280;33659;42.672;23.354;2024-01-15T07:30:29;67076.13;;;0.81;64.50
11692;BME280;33659;42.672;23.354;2024-01-15T07:32:57;67088.47;;;0.93;64.20
11692;BME280;33659;42.672;23.354;2024-01-15T07:35:24;67092.22;;;0.97;64.18
11692;BME280;33659;42.672;23.354;2024-01-15T07:37:50;67107.81;;;1.12;64.62
11692;BME280;33659;42.672;23.354;2024-01-15T07:40:17;67117.47;;;1.21;64.05
11692;BME280;33659;42.672;23.354;2024-01-15T07:42:45;67127.13;;;1.30;63.71
11692;BME280;33659;42.672;23.354;2024-01-15T07:45:13;67119.06;;;1.22;62.45
11692;BME280;33659;42.672;23.354;2024-01-15T07:47:40;67134.66;;;1.37;62.66
11692;BME280;33659;42.672;23.354;2024-01-15T07:52:41;67148.63;;;1.50;61.98
11692;BME280;33659;42.672;23.354;2024-01-15T07:55:08;67138.53;;;1.43;62.86
11692;BME280;33659;42.672;23.354;2024-01-15T07:57:35;67133.56;;;1.36;63.01
11692;BME280;33659;42.672;23.354;2024-01-15T08:00:02;67149.28;;;1.53;62.06
11692;BME280;33659;42.672;23.354;2024-01-15T08:02:30;67145.38;;;1.47;62.83
11692;BME280;33659;42.672;23.354;2024-01-15T08:04:57;67143.25;;;1.45;63.00
11692;BME280;33659;42.672;23.354;2024-01-15T08:07:24;67152.50;;;1.56;62.44
11692;BME280;33659;42.672;23.354;2024-01-15T08:09:53;67143.78;;;1.46;62.83
11692;BME280;33659;42.672;23.354;2024-01-15T08:12:20;67112.22;;;1.18;63.69
11692;BME280;33659;42.672;23.354;2024-01-15T08:14:47;67110.34;;;1.12;63.56
11692;BME280;33659;42.672;23.354;2024-01-15T08:17:14;67112.75;;;1.19;63.67
11692;BME280;33659;42.672;23.354;2024-01-15T08:19:42;67119.06;;;1.22;64.00
11692;BME280;33659;42.672;23.354;2024-01-15T08:22:08;67126.06;;;1.29;63.99
11692;BME280;33659;42.672;23.354;2024-01-15T08:24:35;67143.13;;;1.43;64.02
11692;BME280;33659;42.672;23.354;2024-01-15T08:27:03;67155.06;;;1.56;63.80
11692;BME280;33659;42.672;23.354;2024-01-15T08:29:30;67172.25;;;1.73;63.14
11692;BME280;33659;42.672;23.354;2024-01-15T08:31:59;67189.97;;;1.89;62.17
11692;BME280;33659;42.672;23.354;2024-01-15T08:34:25;67205.56;;;2.04;61.66
11692;BME280;33659;42.672;23.354;2024-01-15T08:36:52;67227.59;;;2.25;61.17
11692;BME280;33659;42.672;23.354;2024-01-15T08:39:18;67247.47;;;2.44;60.74
11692;BME280;33659;42.672;23.354;2024-01-15T08:41:46;67262.53;;;2.58;61.22
11692;BME280;33659;42.672;23.354;2024-01-15T08:44:14;67284.03;;;2.79;61.44
11692;BME280;33659;42.672;23.354;2024-01-15T08:46:41;67318.47;;;3.11;59.93
11692;BME280;33659;42.672;23.354;2024-01-15T08:49:07;67353.94;;;3.45;58.82
11692;BME280;33659;42.672;23.354;2024-01-15T08:51:34;67392.44;;;3.76;58.80
11692;BME280;33659;42.672;23.354;2024-01-15T08:54:00;67423.91;;;4.11;57.03
11692;BME280;33659;42.672;23.354;2024-01-15T08:56:27;67453.38;;;4.37;55.48
11692;BME280;33659;42.672;23.354;2024-01-15T08:58:54;67471.69;;;4.54;54.74
11692;BME280;33659;42.672;23.354;2024-01-15T09:01:22;67500.25;;;4.81;53.99
11692;BME280;33659;42.672;23.354;2024-01-15T09:03:49;67528.78;;;5.08;52.85
11692;BME280;33659;42.672;23.354;2024-01-15T09:06:16;67531.50;;;5.10;52.89
11692;BME280;33659;42.672;23.354;2024-01-15T09:08:42;67522.31;;;5.02;52.66
11692;BME280;33659;42.672;23.354;2024-01-15T09:11:09;67509.00;;;4.92;52.87
11692;BME280;33659;42.672;23.354;2024-01-15T09:13:36;67500.91;;;4.84;52.95
11692;BME280;33659;42.672;23.354;2024-01-15T09:16:02;67499.16;;;4.80;52.93
11692;BME280;33659;42.672;23.354;2024-01-15T09:18:30;67497.03;;;4.78;53.45
11692;BME280;33659;42.672;23.354;2024-01-15T09:20:57;67493.13;;;4.72;53.38
11692;BME280;33659;42.672;23.354;2024-01-15T09:23:24;67483.03;;;4.65;53.97
11692;BME280;33659;42.672;23.354;2024-01-15T09:25:50;67472.34;;;4.57;53.86
11692;BME280;33659;42.672;23.354;2024-01-15T09:28:18;67469.13;;;4.54;53.71
11692;BME280;33659;42.672;23.354;2024-01-15T09:30:44;67456.75;;;4.42;54.26
11692;BME280;33659;42.672;23.354;2024-01-15T09:33:12;67447.59;;;4.33;53.85
11692;BME280;33659;42.672;23.354;2024-01-15T09:35:40;67437.78;;;4.22;53.87
11692;BME280;33659;42.672;23.354;2024-01-15T09:38:07;67433.47;;;4.18;54.15
11692;BME280;33659;42.672;23.354;2024-01-15T09:40:34;67432.81;;;4.15;53.89
11692;BME280;33659;42.672;23.354;2024-01-15T09:43:04;67420.00;;;4.05;53.74
11692;BME280;33659;42.672;23.354;2024-01-15T09:45:31;67414.75;;;4.02;54.20
11692;BME280;33659;42.672;23.354;2024-01-15T09:47:58;67402.66;;;3.86;54.60
11692;BME280;33659;42.672;23.354;2024-01-15T09:50:24;67395.25;;;3.82;55.10
11692;BME280;33659;42.672;23.354;2024-01-15T09:52:54;67390.94;;;3.77;55.17
11692;BME280;33659;42.672;23.354;2024-01-15T09:55:22;67375.88;;;3.63;55.79
11692;BME280;33659;42.672;23.354;2024-01-15T09:57:49;67361.47;;;3.52;55.79
11692;BME280;33659;42.672;23.354;2024-01-15T10:00:17;67355.44;;;3.44;55.92
11692;BME280;33659;42.672;23.354;2024-01-15T10:02:45;67352.75;;;3.41;56.37
11692;BME280;33659;42.672;23.354;2024-01-15T10:05:11;67351.28;;;3.42;56.16
11692;BME280;33659;42.672;23.354;2024-01-15T10:07:38;67358.25;;;3.49;55.81
11692;BME280;33659;42.672;23.354;2024-01-15T10:10:09;67363.50;;;3.51;55.87
11692;BME280;33659;42.672;23.354;2024-01-15T10:12:37;67366.19;;;3.54;55.74
11692;BME280;33659;42.672;23.354;2024-01-15T10:15:06;67365.78;;;3.56;56.30
11692;BME280;33659;42.672;23.354;2024-01-15T10:17:36;67364.72;;;3.55;56.85
11692;BME280;33659;42.672;23.354;2024-01-15T10:20:08;67358.66;;;3.47;56.97
11692;BME280;33659;42.672;23.354;2024-01-15T10:22:35;67358.13;;;3.46;57.07
11692;BME280;33659;42.672;23.354;2024-01-15T10:25:03;67363.09;;;3.53;57.17
11692;BME280;33659;42.672;23.354;2024-01-15T10:27:32;67371.72;;;3.62;57.06
11692;BME280;33659;42.672;23.354;2024-01-15T10:29:59;67380.75;;;3.68;56.62
11692;BME280;33659;42.672;23.354;2024-01-15T10:32:26;67379.78;;;3.69;57.14
11692;BME280;33659;42.672;23.354;2024-01-15T10:34:53;67389.47;;;3.78;56.75
11692;BME280;33659;42.672;23.354;2024-01-15T10:37:19;67408.19;;;3.94;56.17
11692;BME280;33659;42.672;23.354;2024-01-15T10:39:46;67424.84;;;4.10;55.38
11692;BME280;33659;42.672;23.354;2024-01-15T10:42:13;67434.16;;;4.21;56.05
11692;BME280;33659;42.672;23.354;2024-01-15T10:44:42;67454.06;;;4.40;55.23
11692;BME280;33659;42.672;23.354;2024-01-15T10:47:09;67471.81;;;4.56;54.61
11692;BME280;33659;42.672;23.354;2024-01-15T10:49:37;67493.25;;;4.74;53.67
11692;BME280;33659;42.672;23.354;2024-01-15T10:52:04;67513.72;;;4.94;53.23
11692;BME280;33659;42.672;23.354;2024-01-15T10:54:31;67528.13;;;5.05;53.44
11692;BME280;33659;42.672;23.354;2024-01-15T10:56:58;67530.00;;;5.11;52.92
11692;BME280;33659;42.672;23.354;2024-01-15T10:59:25;67550.75;;;5.26;52.86
11692;BME280;33659;42.672;23.354;2024-01-15T11:01:53;67567.47;;;5.42;52.30
11692;BME280;33659;42.672;23.354;2024-01-15T11:04:20;67581.59;;;5.58;52.12
11692;BME280;33659;42.672;23.354;2024-01-15T11:06:50;67588.59;;;5.64;51.97
11692;BME280;33659;42.672;23.354;2024-01-15T11:09:17;67601.44;;;5.74;51.99
11692;BME280;33659;42.672;23.354;2024-01-15T11:11:45;67602.22;;;5.80;51.42
11692;BME280;33659;42.672;23.354;2024-01-15T11:14:33;67612.88;;;5.87;51.33
11692;BME280;33659;42.672;23.354;2024-01-15T11:17:03;67623.66;;;5.97;51.29
11692;BME280;33659;42.672;23.354;2024-01-15T11:19:43;67642.53;;;6.15;50.70
11692;BME280;33659;42.672;23.354;2024-01-15T11:22:11;67629.06;;;6.03;50.43
11692;BME280;33659;42.672;23.354;2024-01-15T11:25:02;67629.47;;;6.01;50.85
11692;BME280;33659;42.672;23.354;2024-01-15T11:27:40;67638.78;;;6.12;50.54
11692;BME280;33659;42.672;23.354;2024-01-15T11:30:09;67653.88;;;6.26;50.44
11692;BME280;33659;42.672;23.354;2024-01-15T11:32:38;67661.97;;;6.34;49.95
11692;BME280;33659;42.672;23.354;2024-01-15T11:35:07;67668.97;;;6.40;49.57
11692;BME280;33659;42.672;23.354;2024-01-15T11:37:58;67659.38;;;6.34;49.56
11692;BME280;33659;42.672;23.354;2024-01-15T11:40:41;67660.88;;;6.33;49.27
11692;BME280;33659;42.672;23.354;2024-01-15T11:43:09;67665.72;;;6.37;49.33
11692;BME280;33659;42.672;23.354;2024-01-15T11:45:39;67660.88;;;6.33;49.73
11692;BME280;33659;42.672;23.354;2024-01-15T11:48:11;67639.44;;;6.15;49.96
11692;BME280;33659;42.672;23.354;2024-01-15T11:50:40;67640.94;;;6.14;50.24
11692;BME280;33659;42.672;23.354;2024-01-15T11:53:15;67620.00;;;5.96;50.05
11692;BME280;33659;42.672;23.354;2024-01-15T11:55:44;67616.53;;;5.88;51.06
11692;BME280;33659;42.672;23.354;2024-01-15T11:58:11;67599.25;;;5.72;51.62
11692;BME280;33659;42.672;23.354;2024-01-15T12:00:43;67590.75;;;5.66;51.53
11692;BME280;33659;42.672;23.354;2024-01-15T12:03:11;67585.38;;;5.61;52.06
11692;BME280;33659;42.672;23.354;2024-01-15T12:05:38;67588.06;;;5.64;52.34
11692;BME280;33659;42.672;23.354;2024-01-15T12:08:05;67588.06;;;5.64;52.27
11692;BME280;33659;42.672;23.354;2024-01-15T12:10:36;67569.75;;;5.47;52.49
11692;BME280;33659;42.672;23.354;2024-01-15T12:13:05;67572.97;;;5.50;52.59
11692;BME280;33659;42.672;23.354;2024-01-15T12:15:32;67582.56;;;5.56;52.43
11692;BME280;33659;42.672;23.354;2024-01-15T12:18:00;67590.09;;;5.63;52.46
11692;BME280;33659;42.672;23.354;2024-01-15T12:20:29;67598.44;;;5.76;52.52
11692;BME280;33659;42.672;23.354;2024-01-15T12:22:57;67605.44;;;5.83;52.14
11692;BME280;33659;42.672;23.354;2024-01-15T12:25:24;67613.53;;;5.90;52.61
11692;BME280;33659;42.672;23.354;2024-01-15T12:27:52;67659.13;;;6.29;51.45
11692;BME280;33659;42.672;23.354;2024-01-15T12:30:19;67709.53;;;6.81;50.27
11692;BME280;33659;42.672;23.354;2024-01-15T12:32:46;67736.41;;;7.04;49.60
11692;BME280;33659;42.672;23.354;2024-01-15T12:35:14;67740.69;;;7.08;49.57
11692;BME280;33659;42.672;23.354;2024-01-15T12:37:43;67707.81;;;6.77;49.49
11692;BME280;33659;42.672;23.354;2024-01-15T12:40:11;67674.38;;;6.45;49.68
11692;BME280;33659;42.672;23.354;2024-01-15T12:42:39;67670.56;;;6.42;50.90
11692;BME280;33659;42.672;23.354;2024-01-15T12:45:08;67660.34;;;6.32;50.55
11692;BME280;33659;42.672;23.354;2024-01-15T12:47:35;67649.00;;;6.21;50.91
11692;BME280;33659;42.672;23.354;2024-01-15T12:50:06;67650.50;;;6.20;51.33
11692;BME280;33659;42.672;23.354;2024-01-15T12:52:33;67637.69;;;6.11;51.33
11692;BME280;33659;42.672;23.354;2024-01-15T12:55:01;67624.34;;;6.01;52.72
11692;BME280;33659;42.672;23.354;2024-01-15T12:57:28;67623.66;;;5.97;58.14
11692;BME280;33659;42.672;23.354;2024-01-15T12:59:54;67630.13;;;6.04;56.21
11692;BME280;33659;42.672;23.354;2024-01-15T13:02:21;67629.06;;;6.03;56.17